Terminal Aerodrome Forecast
Issued by NWS Honolulu, HI

Home | Current Version | Previous Version | Text Only | Print | Product List | Glossary On
Versions: 1 2 3 4 5 6 7 8 9 10 11 12 13 14 15 16 17 18 19 20 21 22 23
000
FTPA31 PHFO 271120
TAFHNL
TAF
PHNL 271120Z 2712/2818 03009KT P6SM FEW025 SCT050
     FM272000 06015G22KT P6SM FEW025 SCT050
     FM280500 05009G14KT P6SM FEW025 SCT045
     FM281000 04007KT P6SM FEW025 SCT045=

USA.gov is the U.S. government's official web portal to all federal, state and local government web resources and services.